createdAt,value
2019-04-26T00:00:01.771Z,72.14
2019-04-26T00:01:01.643Z,72.04
2019-04-26T00:02:01.713Z,72.14
2019-04-26T00:03:01.625Z,72.17
2019-04-26T00:04:01.696Z,72.48
2019-04-26T00:05:01.601Z,72.04
2019-04-26T00:06:01.608Z,72.04
2019-04-26T00:07:01.590Z,72.28
2019-04-26T00:08:01.621Z,72.28
2019-04-26T00:09:01.554Z,72.28
2019-04-26T00:10:01.638Z,72.17
2019-04-26T00:11:01.539Z,72.17
2019-04-26T00:12:01.577Z,72.58
2019-04-26T00:13:01.508Z,72.69
2019-04-26T00:14:03.609Z,72.48
2019-04-26T00:15:01.497Z,72.58
2019-04-26T00:16:11.692Z,73.19
2019-04-26T00:17:01.488Z,73.30
2019-04-26T00:18:01.485Z,73.43
2019-04-26T00:19:01.439Z,73.43
2019-04-26T00:20:08.980Z,73.74
2019-04-26T00:21:01.420Z,73.33
2019-04-26T00:22:01.441Z,73.74
2019-04-26T00:23:01.395Z,73.02
2019-04-26T00:24:01.423Z,73.43
2019-04-26T00:25:01.373Z,72.92
2019-04-26T00:26:01.439Z,73.84
2019-04-26T00:27:01.370Z,73.43
2019-04-26T00:28:01.504Z,73.94
2019-04-26T00:29:01.329Z,73.54
2019-04-26T00:30:01.372Z,73.74
2019-04-26T00:31:01.309Z,73.74
2019-04-26T00:32:01.411Z,73.43
2019-04-26T00:33:01.283Z,74.15
2019-04-26T00:34:01.287Z,73.87
2019-04-26T00:35:01.262Z,73.63
2019-04-26T00:36:01.301Z,74.55
2019-04-26T00:37:01.254Z,74.38
2019-04-26T00:38:01.315Z,74.79
2019-04-26T00:39:01.219Z,74.99
2019-04-26T00:40:01.229Z,74.58
2019-04-26T00:41:01.195Z,75.50
2019-04-26T00:42:01.273Z,75.40
2019-04-26T00:43:01.173Z,75.74
2019-04-26T00:44:01.254Z,76.04
2019-04-26T00:45:01.151Z,75.74
2019-04-26T00:46:01.166Z,75.43
2019-04-26T00:47:01.141Z,75.64
2019-04-26T00:48:01.179Z,76.35
2019-04-26T00:49:01.104Z,76.45
2019-04-26T00:50:01.194Z,76.35
2019-04-26T00:51:01.087Z,76.25
2019-04-26T00:52:01.135Z,76.35
2019-04-26T00:53:01.059Z,76.25
2019-04-26T00:54:01.125Z,76.15
2019-04-26T00:55:01.042Z,76.35
2019-04-26T00:56:01.131Z,76.42
2019-04-26T00:57:01.019Z,75.84
2019-04-26T00:58:01.077Z,75.95
2019-04-26T00:59:00.993Z,75.95
2019-04-26T01:00:08.030Z,75.95
2019-04-26T01:01:00.974Z,76.04
2019-04-26T01:02:01.070Z,76.04
2019-04-26T01:03:00.964Z,76.15
2019-04-26T01:04:00.981Z,75.95
2019-04-26T01:05:00.925Z,76.25
2019-04-26T01:06:00.996Z,76.65
2019-04-26T01:07:00.904Z,76.56
2019-04-26T01:08:00.938Z,76.56
2019-04-26T01:09:00.881Z,77.06
2019-04-26T01:10:00.920Z,78.32
2019-04-26T01:11:00.858Z,77.47
2019-04-26T01:12:00.938Z,77.20
2019-04-26T01:13:00.850Z,77.30
2019-04-26T01:14:00.845Z,78.12
2019-04-26T01:15:00.813Z,78.12
2019-04-26T01:16:00.859Z,78.02
2019-04-26T01:17:00.791Z,77.30
2019-04-26T01:18:00.907Z,77.26
2019-04-26T01:19:00.770Z,77.20
2019-04-26T01:20:00.785Z,77.20
2019-04-26T01:21:00.748Z,76.90
2019-04-26T01:22:00.797Z,77.06
2019-04-26T01:23:00.740Z,77.51
2019-04-26T01:24:00.815Z,77.06
2019-04-26T01:25:00.706Z,77.30
2019-04-26T01:26:00.732Z,77.20
2019-04-26T01:27:00.682Z,77.91
2019-04-26T01:28:00.768Z,77.71
2019-04-26T01:29:00.664Z,77.10
2019-04-26T01:30:00.750Z,77.91
2019-04-26T01:31:00.641Z,77.71
2019-04-26T01:32:00.663Z,77.71
2019-04-26T01:33:00.632Z,78.42
2019-04-26T01:34:00.675Z,78.46
2019-04-26T01:35:00.595Z,78.66
2019-04-26T01:36:12.382Z,78.39
2019-04-26T01:37:01.572Z,78.97
2019-04-26T01:38:00.632Z,78.39
2019-04-26T01:39:00.553Z,78.56
2019-04-26T01:40:00.610Z,78.46
2019-04-26T01:41:00.532Z,78.66
2019-04-26T01:42:00.624Z,78.91
2019-04-26T01:43:00.536Z,79.27
2019-04-26T01:44:15.490Z,79.41
2019-04-26T01:45:00.487Z,79.48
2019-04-26T01:46:29.053Z,79.72
2019-04-26T01:47:00.466Z,79.41
2019-04-26T01:48:00.470Z,79.72
2019-04-26T01:49:00.471Z,79.41
2019-04-26T01:50:00.434Z,79.72
2019-04-26T01:51:00.485Z,79.86
2019-04-26T01:52:00.413Z,79.52
2019-04-26T01:53:01.455Z,80.33
2019-04-26T01:54:00.394Z,79.66
2019-04-26T01:55:00.410Z,79.72
2019-04-26T01:56:00.368Z,80.13
2019-04-26T01:57:00.425Z,79.45
2019-04-26T01:58:00.361Z,80.16
2019-04-26T01:59:00.438Z,80.07
2019-04-26T02:00:00.332Z,80.07
2019-04-26T02:01:00.349Z,79.45
2019-04-26T02:02:00.304Z,80.27
2019-04-26T02:03:00.393Z,80.27
2019-04-26T02:04:00.283Z,80.57
2019-04-26T02:05:00.372Z,80.78
2019-04-26T02:06:00.265Z,80.37
2019-04-26T02:07:00.283Z,80.37
2019-04-26T02:08:00.256Z,80.16
2019-04-26T02:09:00.297Z,80.07
2019-04-26T02:10:00.217Z,80.16
2019-04-26T02:11:00.310Z,80.16
2019-04-26T02:12:00.197Z,80.16
2019-04-26T02:13:00.261Z,80.57
2019-04-26T02:14:00.175Z,80.57
2019-04-26T02:15:00.236Z,80.78
2019-04-26T02:16:00.155Z,80.98
2019-04-26T02:17:00.255Z,81.09
2019-04-26T02:18:00.169Z,80.47
2019-04-26T02:19:00.165Z,81.09
2019-04-26T02:20:00.109Z,80.98
2019-04-26T02:21:00.177Z,80.88
2019-04-26T02:22:00.087Z,80.88
2019-04-26T02:23:00.188Z,81.12
2019-04-26T02:24:00.083Z,81.39
2019-04-26T02:25:00.100Z,81.94
2019-04-26T02:26:00.045Z,81.84
2019-04-26T02:27:00.113Z,81.53
2019-04-26T02:28:00.024Z,81.63
2019-04-26T02:29:02.108Z,82.35
2019-04-26T02:30:00.005Z,81.94
2019-04-26T02:31:07.011Z,81.63
2019-04-26T02:31:59.992Z,81.53
2019-04-26T02:33:07.043Z,81.98
2019-04-26T02:33:59.970Z,82.49
2019-04-26T02:34:59.967Z,82.89
2019-04-26T02:35:59.937Z,83.10
2019-04-26T02:36:59.993Z,83.04
2019-04-26T02:37:59.914Z,83.24
2019-04-26T02:39:00.024Z,83.44
2019-04-26T02:39:59.894Z,83.24
2019-04-26T02:40:59.906Z,83.69
2019-04-26T02:41:59.870Z,83.28
2019-04-26T02:42:59.917Z,83.79
2019-04-26T02:43:59.863Z,84.00
2019-04-26T02:44:59.955Z,84.81
2019-04-26T02:45:59.843Z,84.71
2019-04-26T02:46:59.841Z,85.16
2019-04-26T02:47:59.804Z,85.12
2019-04-26T02:48:59.893Z,84.81
2019-04-26T02:49:59.783Z,85.32
2019-04-26T02:50:59.870Z,85.06
2019-04-26T02:51:59.766Z,85.12
2019-04-26T02:52:59.785Z,85.12
2019-04-26T02:53:59.751Z,86.24
2019-04-26T02:54:59.795Z,85.32
2019-04-26T02:55:59.716Z,85.63
2019-04-26T02:56:59.807Z,85.53
2019-04-26T02:57:59.695Z,85.12
2019-04-26T02:58:59.750Z,84.71
2019-04-26T02:59:59.671Z,85.32
2019-04-26T03:00:59.733Z,85.32
2019-04-26T03:01:59.651Z,85.42
2019-04-26T03:02:59.746Z,85.32
2019-04-26T03:03:59.661Z,84.71
2019-04-26T03:04:59.664Z,84.71
2019-04-26T03:05:59.606Z,84.61
2019-04-26T03:07:03.304Z,85.63
2019-04-26T03:07:59.584Z,84.71
2019-04-26T03:08:59.617Z,85.42
2019-04-26T03:09:59.561Z,85.53
2019-04-26T03:10:59.599Z,85.63
2019-04-26T03:11:59.541Z,85.32
2019-04-26T03:12:59.611Z,85.22
2019-04-26T03:13:59.534Z,85.32
2019-04-26T03:15:13.865Z,84.71
2019-04-26T03:16:00.498Z,84.71
2019-04-26T03:17:14.486Z,85.32
2019-04-26T03:17:59.472Z,84.71
2019-04-26T03:19:00.514Z,85.32
2019-04-26T03:19:59.450Z,85.02
2019-04-26T03:20:59.460Z,84.91
2019-04-26T03:21:59.431Z,85.12
2019-04-26T03:22:59.479Z,85.12
2019-04-26T03:23:59.670Z,85.22
2019-04-26T03:24:59.489Z,85.16
2019-04-26T03:25:59.396Z,85.32
2019-04-26T03:26:59.399Z,85.22
2019-04-26T03:27:59.368Z,85.22
2019-04-26T03:28:59.455Z,85.42
2019-04-26T03:30:18.929Z,86.18
2019-04-26T03:31:00.344Z,85.67
2019-04-26T03:31:59.334Z,85.88
2019-04-26T03:32:59.445Z,86.08
2019-04-26T03:33:59.487Z,86.59
2019-04-26T03:34:59.457Z,86.90
2019-04-26T03:35:59.375Z,87.00
2019-04-26T03:36:59.269Z,87.10
2019-04-26T03:37:59.270Z,87.04
2019-04-26T03:38:59.252Z,87.14
2019-04-26T03:39:59.286Z,87.76
2019-04-26T03:40:59.220Z,87.24
2019-04-26T03:41:59.303Z,87.45
2019-04-26T03:42:59.205Z,87.45
2019-04-26T03:43:59.248Z,87.45
2019-04-26T03:44:59.176Z,87.76
2019-04-26T03:45:59.228Z,87.96
2019-04-26T03:46:59.154Z,88.06
2019-04-26T03:47:59.241Z,87.85
2019-04-26T03:48:59.171Z,87.65
2019-04-26T03:49:59.150Z,88.26
2019-04-26T03:50:59.108Z,88.68
2019-04-26T03:51:59.173Z,88.68
2019-04-26T03:52:59.094Z,88.33
2019-04-26T03:53:59.175Z,88.43
2019-04-26T03:54:59.076Z,88.64
2019-04-26T03:55:59.087Z,88.57
2019-04-26T03:56:59.042Z,88.47
2019-04-26T03:57:59.099Z,89.18
2019-04-26T03:58:59.023Z,88.98
2019-04-26T04:00:02.528Z,89.59
2019-04-26T04:00:59.000Z,89.29
2019-04-26T04:02:05.989Z,88.78
2019-04-26T04:02:58.977Z,89.29
2019-04-26T04:04:00.986Z,89.39
2019-04-26T04:04:58.982Z,89.50
2019-04-26T04:05:59.982Z,89.39
2019-04-26T04:07:04.887Z,89.18
2019-04-26T04:07:59.989Z,89.59
2019-04-26T04:08:58.910Z,89.90
2019-04-26T04:09:59.006Z,89.90
2019-04-26T04:10:58.889Z,89.29
2019-04-26T04:12:11.312Z,90.11
2019-04-26T04:12:59.866Z,89.80
2019-04-26T04:13:59.020Z,90.00
2019-04-26T04:14:58.876Z,90.52
2019-04-26T04:15:58.918Z,89.97
2019-04-26T04:16:58.821Z,90.27
2019-04-26T04:17:58.828Z,90.17
2019-04-26T04:18:58.799Z,89.35
2019-04-26T04:19:58.872Z,89.25
2019-04-26T04:20:58.777Z,89.15
2019-04-26T04:21:58.874Z,89.35
2019-04-26T04:22:58.760Z,89.76
2019-04-26T04:23:58.767Z,89.04
2019-04-26T04:24:58.745Z,89.31
2019-04-26T04:25:58.792Z,89.11
2019-04-26T04:26:58.711Z,89.65
2019-04-26T04:27:58.796Z,89.61
2019-04-26T04:28:58.691Z,88.90
2019-04-26T04:29:58.737Z,89.00
2019-04-26T04:30:58.677Z,88.79
2019-04-26T04:31:58.721Z,88.90
2019-04-26T04:32:58.651Z,88.90
2019-04-26T04:33:58.736Z,88.59
2019-04-26T04:34:58.635Z,88.29
2019-04-26T04:35:58.646Z,88.45
2019-04-26T04:36:58.600Z,88.04
2019-04-26T04:38:08.816Z,87.94
2019-04-26T04:39:10.965Z,87.63
2019-04-26T04:39:59.581Z,87.59
2019-04-26T04:40:58.576Z,87.08
2019-04-26T04:41:58.545Z,86.83
2019-04-26T04:42:58.670Z,86.73
2019-04-26T04:43:58.525Z,86.12
2019-04-26T04:45:02.029Z,85.98
2019-04-26T04:45:58.577Z,85.37
2019-04-26T04:47:22.701Z,85.13
2019-04-26T04:47:59.482Z,85.02
2019-04-26T04:49:05.029Z,84.67
2019-04-26T04:49:58.472Z,83.86
2019-04-26T04:50:59.469Z,83.65
2019-04-26T04:51:58.441Z,83.56
2019-04-26T04:52:58.459Z,83.56
2019-04-26T04:53:58.414Z,84.20
2019-04-26T04:55:06.840Z,84.92
2019-04-26T04:55:59.392Z,85.02
2019-04-26T04:56:58.486Z,84.92
2019-04-26T04:57:58.380Z,85.16
2019-04-26T04:58:58.395Z,85.98
2019-04-26T04:59:58.361Z,85.06
2019-04-26T05:00:58.406Z,85.47
2019-04-26T05:01:58.330Z,85.98
2019-04-26T05:02:58.422Z,85.68
2019-04-26T05:03:58.303Z,86.90
2019-04-26T05:04:58.367Z,86.59
2019-04-26T05:06:07.212Z,86.49
2019-04-26T05:06:59.273Z,86.80
2019-04-26T05:08:06.461Z,86.80
2019-04-26T05:08:59.251Z,86.80
2019-04-26T05:09:58.297Z,86.80
2019-04-26T05:10:58.228Z,86.49
2019-04-26T05:11:58.286Z,86.76
2019-04-26T05:12:58.211Z,86.55
2019-04-26T05:13:58.298Z,86.96
2019-04-26T05:14:58.190Z,86.65
2019-04-26T05:15:58.233Z,86.51
2019-04-26T05:16:58.162Z,85.90
2019-04-26T05:17:58.217Z,85.49
2019-04-26T05:18:58.139Z,86.51
2019-04-26T05:19:58.229Z,85.75
2019-04-26T05:20:58.142Z,85.45
2019-04-26T05:21:58.148Z,84.84
2019-04-26T05:22:58.108Z,84.59
2019-04-26T05:23:58.156Z,85.21
2019-04-26T05:24:58.086Z,84.12
2019-04-26T05:25:58.140Z,84.90
2019-04-26T05:26:58.083Z,83.54
2019-04-26T05:28:00.151Z,82.59
2019-04-26T05:28:58.092Z,81.93
2019-04-26T05:29:59.120Z,81.59
2019-04-26T05:30:58.021Z,80.44
2019-04-26T05:32:05.995Z,79.32
2019-04-26T05:32:57.985Z,79.22
2019-04-26T05:34:05.498Z,78.67
2019-04-26T05:34:57.961Z,78.44
2019-04-26T05:35:58.998Z,77.32
2019-04-26T05:36:57.943Z,77.62
2019-04-26T05:37:57.944Z,78.06
2019-04-26T05:38:57.923Z,77.97
2019-04-26T05:39:57.960Z,77.45
2019-04-26T05:40:57.930Z,78.51
2019-04-26T05:41:57.980Z,79.22
2019-04-26T05:42:58.032Z,79.52
2019-04-26T05:43:58.062Z,79.22
2019-04-26T05:44:58.945Z,79.22
2019-04-26T05:45:58.985Z,79.36
2019-04-26T05:46:57.903Z,79.46
2019-04-26T05:48:08.254Z,80.00
2019-04-26T05:48:58.809Z,81.02
2019-04-26T05:49:58.044Z,81.02
2019-04-26T05:50:57.921Z,81.06
2019-04-26T05:51:57.892Z,81.57
2019-04-26T05:52:57.777Z,81.57
2019-04-26T05:53:57.856Z,82.52
2019-04-26T05:54:58.236Z,82.01
2019-04-26T05:55:58.062Z,82.12
2019-04-26T05:56:58.392Z,82.42
2019-04-26T05:57:58.600Z,82.18
2019-04-26T05:59:00.276Z,81.87
2019-04-26T05:59:58.840Z,82.18
2019-04-26T06:00:57.925Z,81.77
2019-04-26T06:01:58.939Z,81.81
2019-04-26T06:02:57.655Z,81.67
2019-04-26T06:03:58.387Z,80.99
2019-04-26T06:04:57.632Z,80.96
2019-04-26T06:05:58.561Z,80.55
2019-04-26T06:06:57.612Z,80.92
2019-04-26T06:07:58.520Z,80.07
2019-04-26T06:08:57.592Z,78.91
2019-04-26T06:09:58.639Z,77.80
2019-04-26T06:10:57.879Z,77.59
2019-04-26T06:11:58.699Z,77.97
2019-04-26T06:12:58.699Z,75.79
2019-04-26T06:13:57.842Z,75.70
2019-04-26T06:14:57.531Z,74.27
2019-04-26T06:16:02.439Z,74.78
2019-04-26T06:16:57.521Z,74.04
2019-04-26T06:17:57.501Z,74.04
2019-04-26T06:18:57.492Z,74.74
2019-04-26T06:19:57.521Z,74.62
2019-04-26T06:20:57.479Z,75.93
2019-04-26T06:22:00.051Z,76.07
2019-04-26T06:22:58.217Z,76.24
2019-04-26T06:23:57.861Z,75.83
2019-04-26T06:24:58.070Z,76.17
2019-04-26T06:26:00.770Z,76.07
2019-04-26T06:27:10.337Z,75.76
2019-04-26T06:27:58.460Z,75.80
2019-04-26T06:28:57.484Z,76.31
2019-04-26T06:29:57.359Z,76.37
2019-04-26T06:30:57.419Z,76.58
2019-04-26T06:31:57.983Z,76.61
2019-04-26T06:33:03.257Z,76.61
2019-04-26T06:33:58.744Z,76.58
2019-04-26T06:34:57.416Z,75.93
2019-04-26T06:35:57.404Z,76.14
2019-04-26T06:36:57.596Z,75.93
2019-04-26T06:37:57.387Z,75.32
2019-04-26T06:38:57.804Z,75.12
2019-04-26T06:39:57.800Z,75.22
2019-04-26T06:40:58.186Z,75.52
2019-04-26T06:41:58.276Z,75.32
2019-04-26T06:42:58.277Z,75.12
2019-04-26T06:43:58.262Z,75.73
2019-04-26T06:44:58.294Z,75.12
2019-04-26T06:45:58.514Z,74.68
2019-04-26T06:46:57.694Z,73.87
2019-04-26T06:47:57.186Z,75.19
2019-04-26T06:48:57.202Z,75.43
2019-04-26T06:49:57.741Z,76.03
2019-04-26T06:50:58.376Z,75.63
2019-04-26T06:51:58.396Z,75.76
2019-04-26T06:52:58.061Z,75.63
2019-04-26T06:53:57.249Z,76.28
2019-04-26T06:54:57.797Z,76.68
2019-04-26T06:55:58.122Z,76.78
2019-04-26T06:57:06.431Z,76.48
2019-04-26T06:57:59.344Z,76.78
2019-04-26T06:58:57.930Z,76.24
2019-04-26T06:59:57.520Z,76.28
2019-04-26T07:00:58.996Z,76.37
2019-04-26T07:01:57.963Z,77.02
2019-04-26T07:03:05.686Z,76.78
2019-04-26T07:03:58.203Z,76.48
2019-04-26T07:04:57.008Z,76.28
2019-04-26T07:05:58.796Z,76.37
2019-04-26T07:06:59.932Z,76.28
2019-04-26T07:07:56.954Z,76.31
2019-04-26T07:08:59.622Z,76.28
2019-04-26T07:09:57.515Z,76.48
2019-04-26T07:10:58.222Z,76.24
2019-04-26T07:11:56.911Z,76.14
2019-04-26T07:12:56.957Z,76.03
2019-04-26T07:13:56.881Z,76.14
2019-04-26T07:14:56.983Z,75.67
2019-04-26T07:15:56.854Z,76.14
2019-04-26T07:16:58.000Z,75.93
2019-04-26T07:17:56.836Z,75.39
2019-04-26T07:18:56.831Z,74.27
2019-04-26T07:19:58.489Z,74.58
2019-04-26T07:20:56.910Z,74.58
2019-04-26T07:21:56.817Z,74.48
2019-04-26T07:22:56.900Z,74.68
2019-04-26T07:23:56.787Z,74.21
2019-04-26T07:24:56.835Z,74.51
2019-04-26T07:25:56.744Z,74.62
2019-04-26T07:26:56.779Z,74.68
2019-04-26T07:28:03.702Z,74.38
2019-04-26T07:28:57.734Z,74.58
2019-04-26T07:29:56.844Z,74.38
2019-04-26T07:30:56.711Z,74.82
2019-04-26T07:31:56.919Z,75.22
2019-04-26T07:32:56.690Z,75.22
2019-04-26T07:33:56.723Z,74.31
2019-04-26T07:34:56.649Z,74.31
2019-04-26T07:35:58.945Z,74.27
2019-04-26T07:36:56.728Z,74.38
2019-04-26T07:37:56.728Z,74.38
2019-04-26T07:39:09.020Z,73.77
2019-04-26T07:39:57.649Z,74.54
2019-04-26T07:40:56.715Z,73.83
2019-04-26T07:41:56.610Z,73.36
2019-04-26T07:42:56.671Z,73.22
2019-04-26T07:43:56.555Z,72.72
2019-04-26T07:44:56.604Z,72.82
2019-04-26T07:45:56.579Z,73.22
2019-04-26T07:46:56.619Z,72.61
2019-04-26T07:47:56.520Z,73.33
2019-04-26T07:48:57.526Z,73.93
2019-04-26T07:49:56.507Z,73.53
2019-04-26T07:50:56.525Z,72.75
2019-04-26T07:51:56.466Z,72.14
2019-04-26T07:52:56.632Z,71.50
2019-04-26T07:53:56.448Z,70.39
2019-04-26T07:54:57.471Z,71.64
2019-04-26T07:55:56.438Z,72.04
2019-04-26T07:56:56.538Z,71.94
2019-04-26T07:57:56.441Z,70.72
2019-04-26T07:58:56.452Z,71.20
2019-04-26T07:59:56.421Z,70.36
2019-04-26T08:00:56.466Z,68.84
2019-04-26T08:01:56.368Z,69.65
2019-04-26T08:02:56.411Z,68.30
2019-04-26T08:03:56.327Z,66.58
2019-04-26T08:04:56.394Z,66.38
2019-04-26T08:05:56.322Z,67.39
2019-04-26T08:06:56.409Z,66.78
2019-04-26T08:07:56.337Z,66.88
2019-04-26T08:08:56.334Z,67.25
2019-04-26T08:09:59.661Z,66.88
2019-04-26T08:10:56.333Z,67.08
2019-04-26T08:11:56.238Z,66.50
2019-04-26T08:12:56.299Z,66.61
2019-04-26T08:13:56.225Z,67.05
2019-04-26T08:14:56.276Z,67.65
2019-04-26T08:15:56.193Z,68.40
2019-04-26T08:16:56.298Z,68.73
2019-04-26T08:17:56.187Z,69.44
2019-04-26T08:18:56.181Z,69.64
2019-04-26T08:19:57.470Z,69.98
2019-04-26T08:20:56.203Z,70.25
2019-04-26T08:22:11.155Z,69.98
2019-04-26T08:22:57.152Z,70.28
2019-04-26T08:23:57.715Z,71.00
2019-04-26T08:24:56.127Z,71.03
2019-04-26T08:25:56.127Z,70.55
2019-04-26T08:27:08.107Z,71.67
2019-04-26T08:27:57.088Z,72.04
2019-04-26T08:28:56.651Z,72.14
2019-04-26T08:29:56.044Z,70.72
2019-04-26T08:31:04.738Z,71.26
2019-04-26T08:31:57.851Z,72.28
2019-04-26T08:32:56.103Z,71.77
2019-04-26T08:33:55.995Z,71.26
2019-04-26T08:34:57.008Z,72.04
2019-04-26T08:35:55.973Z,71.94
2019-04-26T08:36:57.250Z,72.25
2019-04-26T08:37:57.461Z,72.14
2019-04-26T08:38:56.025Z,72.96
2019-04-26T08:39:55.970Z,73.26
2019-04-26T08:40:56.025Z,74.04
2019-04-26T08:41:55.907Z,73.93
2019-04-26T08:42:57.383Z,73.53
2019-04-26T08:43:55.914Z,73.63
2019-04-26T08:44:55.949Z,73.43
2019-04-26T08:46:02.973Z,73.53
2019-04-26T08:46:57.065Z,74.30
2019-04-26T08:47:55.860Z,74.34
2019-04-26T08:48:58.180Z,74.34
2019-04-26T08:49:55.819Z,75.05
2019-04-26T08:50:55.812Z,76.00
2019-04-26T08:51:56.154Z,75.70
2019-04-26T08:52:57.843Z,76.03
2019-04-26T08:53:55.778Z,76.14
2019-04-26T08:54:55.816Z,76.28
2019-04-26T08:55:55.756Z,76.88
2019-04-26T08:56:55.827Z,78.10
2019-04-26T08:57:55.745Z,78.75
2019-04-26T08:58:55.739Z,79.32
2019-04-26T08:59:55.708Z,79.36
2019-04-26T09:00:55.755Z,78.24
2019-04-26T09:01:55.686Z,78.24
2019-04-26T09:02:55.805Z,78.55
2019-04-26T09:03:55.672Z,78.78
2019-04-26T09:04:55.678Z,79.19
2019-04-26T09:05:55.643Z,79.09
2019-04-26T09:06:55.696Z,80.35
2019-04-26T09:07:57.580Z,80.04
2019-04-26T09:08:55.725Z,77.70
2019-04-26T09:09:57.379Z,78.66
2019-04-26T09:10:55.616Z,79.27
2019-04-26T09:11:59.874Z,80.42
2019-04-26T09:12:55.662Z,82.15
2019-04-26T09:13:55.555Z,81.44
2019-04-26T09:14:55.644Z,83.27
2019-04-26T09:15:55.561Z,83.51
2019-04-26T09:17:02.522Z,84.43
2019-04-26T09:17:55.511Z,85.35
2019-04-26T09:18:59.548Z,85.45
2019-04-26T09:19:58.084Z,86.68
2019-04-26T09:20:56.504Z,86.82
2019-04-26T09:21:55.469Z,87.53
2019-04-26T09:22:56.663Z,88.18
2019-04-26T09:23:56.457Z,89.20
2019-04-26T09:24:59.510Z,89.61
2019-04-26T09:25:59.374Z,90.01
2019-04-26T09:26:55.520Z,89.75
2019-04-26T09:27:55.400Z,90.88
2019-04-26T09:28:56.554Z,90.16
2019-04-26T09:29:55.376Z,90.98
2019-04-26T09:30:55.451Z,90.41
2019-04-26T09:31:55.434Z,90.51
2019-04-26T09:32:58.244Z,91.22
2019-04-26T09:33:56.345Z,91.94
2019-04-26T09:34:55.373Z,92.24
2019-04-26T09:35:55.314Z,92.55
2019-04-26T09:36:55.385Z,93.37
2019-04-26T09:37:55.297Z,93.47
2019-04-26T09:38:55.328Z,94.49
2019-04-26T09:39:55.267Z,94.08
2019-04-26T09:40:56.308Z,94.29
2019-04-26T09:41:55.246Z,94.59
2019-04-26T09:42:55.322Z,94.38
2019-04-26T09:43:58.934Z,94.38
2019-04-26T09:44:56.938Z,94.59
2019-04-26T09:45:55.201Z,94.95
2019-04-26T09:46:55.253Z,94.45
2019-04-26T09:47:55.188Z,95.16
2019-04-26T09:48:55.294Z,95.26
2019-04-26T09:49:55.162Z,95.67
2019-04-26T09:50:55.173Z,94.49
2019-04-26T09:51:55.134Z,93.67
2019-04-26T09:52:55.188Z,94.79
2019-04-26T09:53:55.126Z,94.90
2019-04-26T09:54:55.201Z,94.79
2019-04-26T09:55:55.091Z,95.00
2019-04-26T09:56:55.113Z,95.00
2019-04-26T09:57:57.032Z,95.51
2019-04-26T09:58:56.182Z,95.72
2019-04-26T09:59:55.045Z,95.87
2019-04-26T10:00:55.146Z,94.34
2019-04-26T10:01:55.399Z,93.47
2019-04-26T10:03:05.448Z,94.24
2019-04-26T10:03:56.018Z,94.55
2019-04-26T10:05:01.539Z,92.41
2019-04-26T10:05:55.873Z,93.32
2019-04-26T10:06:59.473Z,93.32
2019-04-26T10:07:54.957Z,93.43
2019-04-26T10:08:55.023Z,93.02
2019-04-26T10:09:56.402Z,93.48
2019-04-26T10:10:55.005Z,93.38
2019-04-26T10:11:54.916Z,92.67
2019-04-26T10:12:54.916Z,91.40
2019-04-26T10:13:54.902Z,89.86
2019-04-26T10:14:54.932Z,91.14
2019-04-26T10:15:58.189Z,88.18
2019-04-26T10:16:55.966Z,90.32
2019-04-26T10:17:54.848Z,90.48
2019-04-26T10:18:58.202Z,91.16
2019-04-26T10:19:54.821Z,91.22
2019-04-26T10:20:54.877Z,90.16
2019-04-26T10:21:54.802Z,88.32
2019-04-26T10:22:54.881Z,87.20
2019-04-26T10:23:54.798Z,88.18
2019-04-26T10:24:54.792Z,89.03
2019-04-26T10:25:54.757Z,88.73
2019-04-26T10:26:55.512Z,86.59
2019-04-26T10:27:54.734Z,88.02
2019-04-26T10:28:54.749Z,89.14
2019-04-26T10:29:56.156Z,90.16
2019-04-26T10:30:55.701Z,90.01
2019-04-26T10:31:54.738Z,89.76
2019-04-26T10:32:58.108Z,89.76
2019-04-26T10:33:54.782Z,88.91
2019-04-26T10:34:54.658Z,86.51
2019-04-26T10:35:56.732Z,87.18
2019-04-26T10:36:56.935Z,86.92
2019-04-26T10:37:54.680Z,87.84
2019-04-26T10:38:58.292Z,86.71
2019-04-26T10:39:54.691Z,88.85
2019-04-26T10:40:54.595Z,88.85
2019-04-26T10:41:54.607Z,89.56
2019-04-26T10:42:54.569Z,87.87
2019-04-26T10:43:54.621Z,88.59
2019-04-26T10:44:54.563Z,89.26
2019-04-26T10:46:02.517Z,89.26
2019-04-26T10:46:55.720Z,87.87
2019-04-26T10:47:56.588Z,85.84
2019-04-26T10:48:54.504Z,87.57
2019-04-26T10:49:58.285Z,88.59
2019-04-26T10:50:54.481Z,87.37
2019-04-26T10:51:55.500Z,84.97
2019-04-26T10:52:55.725Z,84.80
2019-04-26T10:53:54.484Z,87.10
2019-04-26T10:54:54.454Z,87.51
2019-04-26T10:55:54.493Z,88.12
2019-04-26T10:56:54.996Z,87.35
2019-04-26T10:57:54.506Z,87.04
2019-04-26T10:58:54.395Z,86.43
2019-04-26T10:59:54.449Z,88.16
2019-04-26T11:00:54.385Z,88.98
2019-04-26T11:01:54.436Z,89.07
2019-04-26T11:02:54.351Z,87.04
2019-04-26T11:03:54.446Z,88.81
2019-04-26T11:04:54.348Z,88.10
2019-04-26T11:05:55.356Z,88.61
2019-04-26T11:06:54.310Z,88.00
2019-04-26T11:07:54.371Z,87.45
2019-04-26T11:08:54.286Z,88.92
2019-04-26T11:09:54.313Z,88.92
2019-04-26T11:10:54.263Z,89.22
2019-04-26T11:11:54.296Z,88.98
2019-04-26T11:12:54.239Z,86.33
2019-04-26T11:13:54.321Z,85.25
2019-04-26T11:14:56.979Z,84.43
2019-04-26T11:15:54.221Z,87.18
2019-04-26T11:16:54.195Z,88.81
2019-04-26T11:17:54.239Z,88.71
2019-04-26T11:18:57.211Z,89.32
2019-04-26T11:19:55.201Z,88.81
2019-04-26T11:20:54.153Z,87.90
2019-04-26T11:21:54.782Z,88.71
2019-04-26T11:22:54.170Z,89.01
2019-04-26T11:23:54.174Z,88.77
2019-04-26T11:24:55.046Z,89.07
2019-04-26T11:25:54.194Z,89.12
2019-04-26T11:26:54.086Z,89.18
2019-04-26T11:27:54.101Z,88.87
2019-04-26T11:28:55.763Z,87.24
2019-04-26T11:29:54.327Z,86.68
2019-04-26T11:30:57.202Z,86.00
2019-04-26T11:31:54.278Z,86.61
2019-04-26T11:32:54.015Z,86.82
2019-04-26T11:34:04.678Z,87.38
2019-04-26T11:34:58.778Z,88.10
2019-04-26T11:35:55.998Z,86.68
2019-04-26T11:36:53.974Z,87.04
2019-04-26T11:37:56.645Z,86.83
2019-04-26T11:38:53.954Z,86.59
2019-04-26T11:39:54.080Z,86.80
2019-04-26T11:41:06.019Z,85.03
2019-04-26T11:41:54.914Z,84.62
2019-04-26T11:42:53.998Z,84.31
2019-04-26T11:43:54.509Z,84.82
2019-04-26T11:45:05.433Z,86.51
2019-04-26T11:46:04.069Z,86.61
2019-04-26T11:46:54.857Z,85.49
2019-04-26T11:47:56.216Z,84.62
2019-04-26T11:48:59.093Z,84.21
2019-04-26T11:49:54.916Z,82.82
2019-04-26T11:50:53.822Z,85.00
2019-04-26T11:51:53.857Z,84.09
2019-04-26T11:52:53.795Z,84.90
2019-04-26T11:53:53.870Z,85.72
2019-04-26T11:54:55.127Z,83.98
2019-04-26T11:55:53.787Z,86.06
2019-04-26T11:56:53.751Z,87.14
2019-04-26T11:57:53.797Z,84.74
2019-04-26T11:58:56.894Z,84.23
2019-04-26T11:59:53.837Z,85.05
2019-04-26T12:00:53.750Z,84.70
2019-04-26T12:01:53.719Z,85.82
2019-04-26T12:02:53.686Z,84.80
2019-04-26T12:03:55.636Z,85.27
2019-04-26T12:04:55.138Z,85.13
2019-04-26T12:05:53.745Z,84.62
2019-04-26T12:06:53.645Z,84.45
2019-04-26T12:07:53.659Z,85.64
2019-04-26T12:08:53.619Z,84.72
2019-04-26T12:09:53.684Z,81.60
2019-04-26T12:10:53.615Z,83.23
2019-04-26T12:12:03.918Z,83.44
2019-04-26T12:13:05.169Z,84.01
2019-04-26T12:13:55.460Z,82.28
2019-04-26T12:14:55.651Z,82.89
2019-04-26T12:15:53.562Z,82.89
2019-04-26T12:17:14.613Z,81.46
2019-04-26T12:17:58.629Z,82.79
2019-04-26T12:18:54.552Z,82.38
2019-04-26T12:19:53.499Z,83.36
2019-04-26T12:20:57.170Z,82.40
2019-04-26T12:21:54.480Z,83.42
2019-04-26T12:22:55.501Z,83.42
2019-04-26T12:23:55.588Z,81.25
2019-04-26T12:24:53.471Z,81.79
2019-04-26T12:25:53.448Z,82.26
2019-04-26T12:26:56.005Z,83.18
2019-04-26T12:27:53.710Z,80.40
2019-04-26T12:28:53.493Z,80.54
2019-04-26T12:29:53.397Z,80.84
2019-04-26T12:30:54.213Z,83.08
2019-04-26T12:31:53.368Z,80.74
2019-04-26T12:32:53.422Z,82.20
2019-04-26T12:33:53.344Z,84.50
2019-04-26T12:34:53.444Z,86.08
2019-04-26T12:35:57.022Z,83.20
2019-04-26T12:36:53.343Z,81.27
2019-04-26T12:37:54.656Z,81.74
2019-04-26T12:38:53.372Z,80.83
2019-04-26T12:39:53.281Z,80.57
2019-04-26T12:40:53.302Z,81.21
2019-04-26T12:41:53.257Z,82.53
2019-04-26T12:42:53.282Z,84.46
2019-04-26T12:43:54.466Z,85.03
2019-04-26T12:44:54.325Z,80.80
2019-04-26T12:45:53.241Z,80.91
2019-04-26T12:46:53.313Z,80.27
2019-04-26T12:47:53.191Z,81.90
2019-04-26T12:48:53.221Z,83.32
2019-04-26T12:49:54.567Z,82.98
2019-04-26T12:50:54.202Z,84.40
2019-04-26T12:51:53.169Z,85.72